Time;durP1;ratioP1;P1;durP2;ratioP2;P2;SDS_P1;SDS_P2;PMS_P1;PMS_P2;Temp;Humidity;BMP_temperature;BMP_pressure;BME280_temperature;BME280_humidity;BME280_pressure;Samples;Min_cycle;Max_cycle;Signal;HPM_P1;HPM_P2
2022/11/04 00:01:30;;;;;;;1.17;1.08;;;10.30;99.90;;;;;;5072622;28;20216;-67
2022/11/04 00:03:57;;;;;;;1.02;0.93;;;10.30;99.90;;;;;;5073576;28;20236;-67
2022/11/04 00:06:25;;;;;;;1.50;1.30;;;10.20;99.90;;;;;;5072927;28;20205;-67
2022/11/04 00:08:53;;;;;;;1.30;1.02;;;10.30;99.90;;;;;;5073365;28;20212;-66
2022/11/04 00:14:09;;;;;;;1.27;1.10;;;10.20;99.90;;;;;;5039230;28;20334;-68
2022/11/04 00:19:21;;;;;;;1.35;1.25;;;10.20;99.90;;;;;;5073339;28;20243;-67
2022/11/04 00:30:06;;;;;;;1.63;1.15;;;10.20;99.90;;;;;;5052656;28;20240;-67
2022/11/04 00:35:18;;;;;;;1.00;0.80;;;10.20;99.90;;;;;;5052590;28;20224;-67
2022/11/04 00:37:46;;;;;;;1.27;1.17;;;10.10;99.90;;;;;;5053149;28;20201;-67
2022/11/04 00:40:15;;;;;;;1.20;0.80;;;10.10;99.90;;;;;;5052406;28;20205;-67
2022/11/04 00:42:44;;;;;;;1.60;1.00;;;10.10;99.90;;;;;;5052386;28;20201;-67
2022/11/04 00:45:11;;;;;;;1.42;1.10;;;10.10;99.90;;;;;;5052630;28;20240;-67
2022/11/04 00:47:38;;;;;;;4.15;1.52;;;10.10;99.90;;;;;;5052446;28;20221;-66
2022/11/04 00:50:05;;;;;;;1.80;1.23;;;10.10;99.90;;;;;;5052559;28;20201;-67
2022/11/04 00:52:32;;;;;;;1.13;1.02;;;10.10;99.90;;;;;;5052011;28;20217;-65
2022/11/04 00:55:00;;;;;;;1.33;0.98;;;10.10;99.90;;;;;;5052599;28;20323;-67
2022/11/04 00:57:27;;;;;;;1.25;1.10;;;10.10;99.90;;;;;;5052078;28;20208;-67
2022/11/04 00:59:54;;;;;;;1.20;1.08;;;10.10;99.90;;;;;;5052444;28;20206;-67
2022/11/04 01:02:20;;;;;;;1.33;1.10;;;10.10;99.90;;;;;;5051571;28;20197;-67
2022/11/04 01:04:47;;;;;;;1.48;1.38;;;10.10;99.90;;;;;;5052289;28;20617;-67
2022/11/04 01:07:14;;;;;;;1.90;1.15;;;10.10;99.90;;;;;;5052005;28;20244;-67
2022/11/04 01:09:41;;;;;;;1.27;1.10;;;10.10;99.90;;;;;;5051959;28;20198;-67
2022/11/04 01:12:09;;;;;;;2.20;1.33;;;10.10;99.90;;;;;;5051784;28;20205;-67
2022/11/04 01:14:35;;;;;;;1.10;1.00;;;10.00;99.90;;;;;;5051879;28;20245;-67
2022/11/04 01:17:02;;;;;;;1.65;1.55;;;10.00;99.90;;;;;;5052376;28;20568;-67
2022/11/04 01:19:29;;;;;;;2.88;1.35;;;10.00;99.90;;;;;;5051722;28;20210;-66
2022/11/04 01:21:56;;;;;;;1.35;1.23;;;10.00;99.90;;;;;;5051619;28;20236;-67
2022/11/04 01:24:23;;;;;;;1.80;1.40;;;10.10;99.90;;;;;;5051861;28;20221;-66
2022/11/04 01:26:49;;;;;;;1.92;1.00;;;10.10;99.90;;;;;;5051838;28;20221;-67
2022/11/04 01:29:17;;;;;;;1.85;1.42;;;10.00;99.90;;;;;;5051600;28;20696;-67
2022/11/04 01:31:44;;;;;;;1.73;1.05;;;10.00;99.90;;;;;;5051297;28;20202;-67
2022/11/04 01:34:11;;;;;;;1.40;1.30;;;10.10;99.90;;;;;;5051792;28;20755;-67
2022/11/04 01:36:37;;;;;;;1.75;1.20;;;10.00;99.90;;;;;;5051758;28;20198;-66
2022/11/04 01:39:04;;;;;;;1.63;1.10;;;10.00;99.90;;;;;;5051692;28;20201;-67
2022/11/04 01:41:33;;;;;;;1.85;1.55;;;10.00;99.90;;;;;;5051189;28;20201;-67
2022/11/04 01:44:03;;;;;;;1.50;1.40;;;10.00;99.90;;;;;;5051323;28;20209;-66
2022/11/04 01:46:38;;;;;;;1.20;1.00;;;10.00;99.90;;;;;;5051513;28;20206;-66
2022/11/04 01:49:18;;;;;;;1.30;1.00;;;10.00;99.90;;;;;;5070191;28;20211;-67
2022/11/04 01:51:47;;;;;;;1.60;1.50;;;10.00;99.90;;;;;;5071105;28;20223;-67
2022/11/04 01:54:14;;;;;;;1.25;1.00;;;10.00;99.90;;;;;;5070864;28;20203;-67
2022/11/04 01:56:42;;;;;;;2.03;1.13;;;10.00;99.90;;;;;;5071527;28;20203;-66
2022/11/04 01:59:17;;;;;;;1.58;1.05;;;10.00;99.90;;;;;;5070968;28;20205;-67
2022/11/04 02:01:46;;;;;;;1.10;0.85;;;10.00;99.90;;;;;;5070801;28;20216;-67
2022/11/04 02:05:06;;;;;;;1.58;1.08;;;10.00;99.90;;;;;;5087316;22;20226;-92
2022/11/04 02:13:59;;;;;;;1.42;1.08;;;10.00;99.90;;;;;;5047311;28;20220;-94
2022/11/04 02:16:38;;;;;;;1.13;1.02;;;9.90;99.90;;;;;;5047282;28;20262;-94
2022/11/04 02:19:27;;;;;;;1.10;0.80;;;9.90;99.90;;;;;;5046504;28;20206;-95
2022/11/04 02:22:16;;;;;;;1.20;1.10;;;9.90;99.90;;;;;;5047467;28;20221;-94
2022/11/04 02:25:12;;;;;;;1.00;0.90;;;9.90;99.90;;;;;;5067714;28;20229;-95
2022/11/04 02:27:54;;;;;;;1.70;0.88;;;9.90;99.90;;;;;;5068686;28;20297;-94
2022/11/04 02:30:23;;;;;;;1.55;0.90;;;9.80;99.90;;;;;;5067737;28;20232;-94
2022/11/04 02:33:21;;;;;;;1.02;0.90;;;9.80;99.90;;;;;;5066578;28;20208;-95
2022/11/04 02:35:59;;;;;;;1.20;1.00;;;9.80;99.90;;;;;;5061416;28;20267;-94
2022/11/04 02:38:33;;;;;;;1.45;1.00;;;9.80;99.90;;;;;;5067912;28;20182;-94
2022/11/04 02:41:10;;;;;;;0.90;0.80;;;9.80;99.90;;;;;;5066586;28;20181;-95
2022/11/04 02:43:45;;;;;;;4.80;0.90;;;9.80;99.90;;;;;;5067277;28;20663;-95
2022/11/04 02:46:21;;;;;;;0.90;0.80;;;9.70;99.90;;;;;;5065981;28;20288;-94
2022/11/04 02:48:52;;;;;;;0.93;0.80;;;9.70;99.90;;;;;;5066419;28;20225;-94
2022/11/04 02:51:26;;;;;;;1.00;0.80;;;9.70;99.90;;;;;;5066227;28;20644;-94
2022/11/04 02:54:00;;;;;;;1.00;0.90;;;9.70;99.90;;;;;;5066542;28;20233;-94
2022/11/04 02:56:29;;;;;;;1.08;0.90;;;9.70;99.90;;;;;;5065370;28;20205;-95
2022/11/04 02:59:00;;;;;;;1.35;0.90;;;9.70;99.90;;;;;;5065139;28;20205;-94
2022/11/04 03:01:34;;;;;;;1.15;1.05;;;9.70;99.90;;;;;;5065064;28;20182;-94
2022/11/04 03:04:06;;;;;;;1.70;1.02;;;9.60;99.90;;;;;;5066453;28;20293;-94
2022/11/04 03:06:34;;;;;;;1.23;1.00;;;9.60;99.90;;;;;;5064837;28;20265;-94
2022/11/04 03:09:02;;;;;;;1.35;1.15;;;9.60;99.90;;;;;;5064413;28;20245;-95
2022/11/04 03:11:31;;;;;;;1.10;1.00;;;9.60;99.90;;;;;;5064646;28;20296;-94
2022/11/04 03:14:02;;;;;;;1.42;0.73;;;9.50;99.90;;;;;;5064030;28;20304;-94
2022/11/04 03:16:36;;;;;;;0.90;0.80;;;9.50;99.90;;;;;;5063262;28;20211;-94
2022/11/04 03:19:09;;;;;;;1.90;0.90;;;9.50;99.90;;;;;;5063632;28;20644;-94
2022/11/04 03:21:41;;;;;;;1.35;1.10;;;9.50;99.90;;;;;;5062333;28;20186;-94
2022/11/04 03:24:08;;;;;;;1.33;1.00;;;9.50;99.90;;;;;;5063476;28;20318;-93
2022/11/04 03:26:47;;;;;;;1.20;1.10;;;9.40;99.90;;;;;;5065252;28;20202;-95
2022/11/04 03:29:23;;;;;;;1.20;0.90;;;9.40;99.90;;;;;;5064309;28;20240;-94
2022/11/04 03:32:03;;;;;;;0.85;0.80;;;9.40;99.90;;;;;;5066622;28;20213;-94
2022/11/04 03:34:31;;;;;;;2.65;1.10;;;9.40;99.90;;;;;;5067271;28;20312;-94
2022/11/04 03:36:58;;;;;;;1.55;0.90;;;9.40;99.90;;;;;;5067724;28;20488;-94
2022/11/04 03:39:25;;;;;;;0.80;0.70;;;9.40;99.90;;;;;;5071123;28;20206;-94
2022/11/04 03:41:56;;;;;;;1.08;0.90;;;9.30;99.90;;;;;;5069853;28;20227;-94
2022/11/04 03:44:23;;;;;;;2.10;1.20;;;9.30;99.90;;;;;;5069123;28;20226;-94
2022/11/04 03:46:52;;;;;;;1.38;1.02;;;9.30;99.90;;;;;;5067833;28;20211;-94
2022/11/04 03:49:22;;;;;;;1.02;0.93;;;9.30;99.90;;;;;;5073677;28;20241;-94
2022/11/04 03:51:50;;;;;;;1.20;1.00;;;9.30;99.90;;;;;;5079441;28;20177;-92
2022/11/04 03:54:18;;;;;;;1.02;0.80;;;9.20;99.90;;;;;;5079624;28;20277;-94
2022/11/04 03:57:00;;;;;;;1.27;0.80;;;9.10;99.90;;;;;;5080951;28;20212;-94
2022/11/04 03:59:45;;;;;;;2.00;1.20;;;9.10;99.90;;;;;;5080720;28;20209;-94
2022/11/04 04:02:18;;;;;;;1.02;0.90;;;9.10;99.90;;;;;;5080420;28;20204;-96
2022/11/04 04:04:53;;;;;;;0.95;0.80;;;9.10;99.90;;;;;;5080502;28;20247;-95
2022/11/04 04:07:29;;;;;;;1.00;0.90;;;9.00;99.90;;;;;;5080180;28;20251;-95
2022/11/04 04:10:01;;;;;;;1.27;0.70;;;9.00;99.90;;;;;;5071837;28;20217;-95
2022/11/04 04:12:37;;;;;;;1.30;0.98;;;9.00;99.90;;;;;;5065003;28;20544;-94
2022/11/04 04:15:10;;;;;;;2.45;1.02;;;8.90;99.90;;;;;;5064916;28;20221;-94
2022/11/04 04:17:44;;;;;;;1.40;1.20;;;8.90;99.90;;;;;;5066723;28;20217;-94
2022/11/04 04:20:15;;;;;;;1.20;1.00;;;8.80;99.90;;;;;;5066152;28;20214;-95
2022/11/04 04:22:48;;;;;;;1.30;0.90;;;8.80;99.90;;;;;;5069117;28;20292;-94
2022/11/04 04:28:03;;;;;;;1.95;0.98;;;8.70;99.90;;;;;;5066560;28;20246;-95
2022/11/04 04:30:30;;;;;;;1.15;0.95;;;8.70;99.90;;;;;;5063897;28;20206;-94
2022/11/04 04:33:03;;;;;;;3.67;1.02;;;8.70;99.90;;;;;;5064171;28;20304;-93
2022/11/04 04:35:45;;;;;;;2.53;1.42;;;8.60;99.90;;;;;;5066250;28;20222;-93
2022/11/04 04:46:36;;;;;;;2.03;0.80;;;8.50;99.90;;;;;;5045608;28;20194;-94
2022/11/04 04:49:08;;;;;;;1.98;0.88;;;8.50;99.90;;;;;;5068054;28;20244;-94
2022/11/04 04:51:39;;;;;;;1.40;0.90;;;8.50;99.90;;;;;;5070558;28;20216;-94
2022/11/04 04:54:06;;;;;;;1.25;0.90;;;8.50;99.90;;;;;;5073821;28;20226;-94
2022/11/04 04:56:35;;;;;;;1.48;1.00;;;8.50;99.90;;;;;;5072104;28;20220;-93
2022/11/04 04:59:02;;;;;;;1.08;0.90;;;8.50;99.90;;;;;;5072326;28;20293;-94
2022/11/04 05:01:29;;;;;;;1.50;1.17;;;8.50;99.90;;;;;;5067126;28;20236;-93
2022/11/04 05:03:56;;;;;;;1.58;1.30;;;8.40;99.90;;;;;;5062305;28;20316;-94
2022/11/04 05:06:25;;;;;;;1.63;0.90;;;8.50;99.90;;;;;;5062439;28;20208;-94
2022/11/04 05:08:52;;;;;;;1.40;1.05;;;8.50;99.90;;;;;;5063487;28;20480;-94
2022/11/04 05:11:19;;;;;;;1.08;0.98;;;8.50;99.90;;;;;;5062669;28;20209;-94
2022/11/04 05:13:46;;;;;;;2.72;1.00;;;8.40;99.90;;;;;;5061876;28;20205;-94
2022/11/04 05:16:12;;;;;;;1.00;0.80;;;8.40;99.90;;;;;;5062601;28;20296;-94
2022/11/04 05:18:39;;;;;;;1.20;1.00;;;8.40;99.90;;;;;;5064812;28;20288;-95
2022/11/04 05:21:07;;;;;;;1.00;0.90;;;8.30;99.90;;;;;;5062410;28;20205;-94
2022/11/04 05:23:36;;;;;;;1.23;0.90;;;8.30;99.90;;;;;;5060496;28;20202;-93
2022/11/04 05:26:03;;;;;;;1.30;0.90;;;8.20;99.90;;;;;;5060988;28;20295;-94
2022/11/04 05:28:31;;;;;;;1.35;1.25;;;8.20;99.90;;;;;;5061320;28;20228;-93
2022/11/04 05:31:02;;;;;;;1.30;1.05;;;8.20;99.90;;;;;;5060589;28;20198;-95
2022/11/04 05:33:28;;;;;;;2.65;1.00;;;8.10;99.90;;;;;;5059542;28;20210;-94
2022/11/04 05:35:55;;;;;;;3.83;1.17;;;8.10;99.90;;;;;;5060339;28;20293;-93
2022/11/04 05:38:22;;;;;;;2.15;1.15;;;8.10;99.90;;;;;;5061380;28;20198;-94
2022/11/04 05:40:51;;;;;;;1.20;1.00;;;8.00;99.90;;;;;;5060474;28;20563;-93
2022/11/04 05:43:17;;;;;;;0.88;0.70;;;8.00;99.90;;;;;;5059558;28;20248;-94
2022/11/04 05:45:45;;;;;;;1.50;1.00;;;8.00;99.90;;;;;;5060403;28;20332;-93
2022/11/04 05:48:12;;;;;;;1.65;1.00;;;8.00;99.90;;;;;;5068949;28;20269;-95
2022/11/04 05:50:41;;;;;;;1.83;1.27;;;8.00;99.90;;;;;;5066141;28;20202;-94
2022/11/04 05:53:15;;;;;;;1.23;0.98;;;8.00;99.90;;;;;;5058569;28;20263;-94
2022/11/04 05:55:42;;;;;;;1.23;0.98;;;8.00;99.90;;;;;;5059398;28;20256;-93
2022/11/04 05:58:11;;;;;;;1.10;1.00;;;8.00;99.90;;;;;;5059471;28;20812;-93
2022/11/04 06:00:44;;;;;;;1.20;1.00;;;8.00;99.90;;;;;;5059789;28;20216;-94
2022/11/04 06:03:11;;;;;;;1.77;1.30;;;8.00;99.90;;;;;;5058929;28;20212;-93
2022/11/04 06:05:38;;;;;;;2.13;1.40;;;7.90;99.90;;;;;;5058754;28;20259;-93
2022/11/04 06:08:05;;;;;;;1.90;1.30;;;7.90;99.90;;;;;;5058602;28;20211;-94
2022/11/04 06:10:32;;;;;;;1.67;1.00;;;7.90;99.90;;;;;;5058890;28;20662;-94
2022/11/04 06:12:59;;;;;;;1.10;0.90;;;7.90;99.90;;;;;;5062058;28;20204;-93
2022/11/04 06:15:27;;;;;;;1.10;0.98;;;7.90;99.90;;;;;;5064100;28;20279;-92
2022/11/04 06:17:54;;;;;;;1.00;0.90;;;7.90;99.90;;;;;;5063202;28;20744;-94
2022/11/04 06:20:21;;;;;;;1.10;0.80;;;7.90;99.90;;;;;;5063061;28;20239;-93
2022/11/04 06:22:48;;;;;;;1.58;1.10;;;7.80;99.90;;;;;;5063649;28;20202;-94
2022/11/04 06:25:15;;;;;;;1.30;1.10;;;7.80;99.90;;;;;;5072890;28;20224;-92
2022/11/04 06:27:42;;;;;;;1.10;1.00;;;7.80;99.90;;;;;;5076786;28;20201;-92
2022/11/04 06:30:10;;;;;;;1.30;1.20;;;7.80;99.90;;;;;;5077978;28;20225;-92
2022/11/04 06:32:38;;;;;;;1.00;0.85;;;7.70;99.90;;;;;;5077834;28;20212;-91
2022/11/04 06:35:07;;;;;;;1.95;1.23;;;7.70;99.90;;;;;;5078211;28;20220;-91
2022/11/04 06:37:34;;;;;;;1.40;1.10;;;7.70;99.90;;;;;;5078076;28;20245;-91
2022/11/04 06:40:01;;;;;;;0.93;0.82;;;7.70;99.90;;;;;;5077825;28;20292;-91
2022/11/04 06:42:28;;;;;;;1.20;0.90;;;7.70;99.90;;;;;;5077868;28;20189;-92
2022/11/04 06:44:59;;;;;;;1.60;1.30;;;7.60;99.90;;;;;;5078439;28;20204;-92
2022/11/04 06:47:26;;;;;;;1.13;0.88;;;7.60;99.90;;;;;;5078701;28;20168;-91
2022/11/04 06:49:54;;;;;;;2.50;1.20;;;7.70;99.90;;;;;;5064114;28;20637;-91
2022/11/04 06:52:21;;;;;;;1.73;1.42;;;7.60;99.90;;;;;;5068276;22;20680;-66
2022/11/04 06:54:48;;;;;;;1.90;1.38;;;7.70;99.90;;;;;;5047967;28;20715;-67
2022/11/04 06:57:15;;;;;;;3.00;1.58;;;7.70;99.90;;;;;;5050243;28;20208;-66
2022/11/04 06:59:41;;;;;;;2.00;1.30;;;7.80;99.90;;;;;;5050136;28;20216;-66
2022/11/04 07:02:10;;;;;;;2.90;1.60;;;7.80;99.90;;;;;;5049830;28;20201;-67
2022/11/04 07:04:37;;;;;;;2.97;2.05;;;7.90;99.90;;;;;;5049790;28;20229;-67
2022/11/04 07:07:05;;;;;;;2.00;1.50;;;7.90;99.90;;;;;;5050196;28;20208;-66
2022/11/04 07:09:32;;;;;;;2.72;1.60;;;7.90;99.90;;;;;;5050145;28;20571;-66
2022/11/04 07:11:59;;;;;;;1.70;1.40;;;8.00;99.90;;;;;;5049683;28;20202;-67
2022/11/04 07:14:26;;;;;;;1.90;1.55;;;8.00;99.90;;;;;;5050027;28;20225;-67
2022/11/04 07:16:53;;;;;;;1.50;1.25;;;8.00;99.90;;;;;;5050100;28;20210;-66
2022/11/04 07:19:20;;;;;;;2.85;1.45;;;8.00;99.90;;;;;;5049768;28;20335;-66
2022/11/04 07:21:46;;;;;;;2.35;1.60;;;8.00;99.90;;;;;;5047961;28;20223;-67
2022/11/04 07:24:14;;;;;;;1.45;1.20;;;8.00;99.90;;;;;;5049552;28;20205;-65
2022/11/04 07:26:41;;;;;;;2.72;1.50;;;8.00;99.90;;;;;;5049911;28;20213;-65
2022/11/04 07:29:10;;;;;;;1.52;1.33;;;8.00;99.90;;;;;;5049615;28;20255;-66
2022/11/04 07:31:36;;;;;;;1.95;1.55;;;8.10;99.90;;;;;;5049740;28;20302;-65
2022/11/04 07:34:04;;;;;;;1.25;1.15;;;8.10;99.90;;;;;;5049425;28;20204;-66
2022/11/04 07:36:30;;;;;;;1.67;1.30;;;8.20;99.90;;;;;;5049843;28;20219;-66
2022/11/04 07:38:57;;;;;;;1.63;1.15;;;8.20;99.90;;;;;;5049820;28;20227;-64
2022/11/04 07:41:25;;;;;;;1.73;1.10;;;8.20;99.90;;;;;;5049183;28;20560;-66
2022/11/04 07:43:53;;;;;;;1.50;1.10;;;8.30;99.90;;;;;;5049767;28;20694;-66
2022/11/04 07:46:21;;;;;;;2.70;1.00;;;8.30;99.90;;;;;;5049748;28;20572;-66
2022/11/04 07:48:48;;;;;;;1.55;0.98;;;8.30;99.90;;;;;;5049673;28;20228;-66
2022/11/04 07:51:17;;;;;;;1.20;1.10;;;8.30;99.90;;;;;;5049072;28;20695;-65
2022/11/04 07:53:45;;;;;;;1.10;0.95;;;8.40;99.90;;;;;;5050024;28;20209;-63
2022/11/04 07:56:13;;;;;;;1.70;1.40;;;8.40;99.90;;;;;;5049464;28;20283;-65
2022/11/04 07:58:41;;;;;;;2.63;1.50;;;8.50;99.90;;;;;;5050256;28;20214;-65
2022/11/04 08:01:11;;;;;;;2.00;1.35;;;8.50;99.90;;;;;;5049414;28;20202;-66
2022/11/04 08:03:38;;;;;;;1.90;1.73;;;8.50;99.90;;;;;;5049860;28;20208;-66
2022/11/04 08:11:29;;;;;;;1.50;1.15;;;8.70;99.90;;;;;;5064824;28;20220;-68
2022/11/04 08:13:58;;;;;;;3.05;1.25;;;8.70;99.90;;;;;;5067452;28;20623;-68
2022/11/04 08:16:26;;;;;;;1.73;1.63;;;8.70;99.90;;;;;;5049180;28;20212;-67
2022/11/04 08:18:53;;;;;;;1.30;0.90;;;8.80;99.90;;;;;;5052747;28;20197;-67
2022/11/04 08:21:21;;;;;;;1.60;1.13;;;8.90;99.90;;;;;;5052369;28;20212;-67
2022/11/04 08:23:50;;;;;;;2.15;1.02;;;8.90;99.90;;;;;;5052602;28;20212;-66
2022/11/04 08:26:19;;;;;;;1.10;1.00;;;9.00;99.90;;;;;;5042057;28;20210;-68
2022/11/04 08:28:46;;;;;;;1.05;0.82;;;9.00;99.90;;;;;;5044589;28;20650;-67
2022/11/04 08:31:17;;;;;;;2.10;1.27;;;9.00;99.90;;;;;;5048531;28;20220;-67
2022/11/04 08:33:45;;;;;;;1.27;1.10;;;9.00;99.90;;;;;;5048524;28;20210;-66
2022/11/04 08:36:14;;;;;;;3.38;1.17;;;9.10;99.90;;;;;;5043283;28;20225;-66
2022/11/04 08:38:41;;;;;;;3.05;1.15;;;9.00;99.90;;;;;;5051766;28;20212;-66
2022/11/04 08:41:09;;;;;;;4.25;1.27;;;9.10;99.90;;;;;;5050872;28;20205;-66
2022/11/04 08:43:36;;;;;;;1.75;1.10;;;9.10;99.90;;;;;;5050322;28;20200;-68
2022/11/04 08:46:05;;;;;;;1.60;1.00;;;9.20;99.90;;;;;;5052327;28;20312;-67
2022/11/04 08:48:35;;;;;;;2.85;1.15;;;9.10;99.90;;;;;;5052230;28;20202;-68
2022/11/04 08:51:03;;;;;;;2.08;1.38;;;9.30;99.90;;;;;;5047474;28;20202;-67
2022/11/04 08:53:30;;;;;;;1.40;1.20;;;9.20;99.90;;;;;;5050162;28;20212;-68
2022/11/04 08:55:56;;;;;;;3.35;1.55;;;9.20;99.90;;;;;;5052111;28;20229;-68
2022/11/04 08:58:23;;;;;;;3.25;1.40;;;9.30;99.90;;;;;;5051862;28;20205;-66
2022/11/04 09:00:51;;;;;;;1.30;1.05;;;9.30;99.90;;;;;;5052419;28;20197;-67
2022/11/04 09:03:18;;;;;;;1.90;1.70;;;9.30;99.90;;;;;;5050674;28;20205;-67
2022/11/04 09:05:47;;;;;;;2.33;1.45;;;9.30;99.90;;;;;;5052296;28;20232;-67
2022/11/04 09:08:15;;;;;;;1.30;1.10;;;9.30;99.90;;;;;;5051565;28;20300;-67
2022/11/04 09:10:43;;;;;;;2.10;1.23;;;9.30;99.90;;;;;;5051313;28;20222;-67
2022/11/04 09:13:10;;;;;;;2.28;1.45;;;9.30;99.90;;;;;;5051410;28;20205;-67
2022/11/04 09:15:38;;;;;;;2.08;1.50;;;9.30;99.90;;;;;;5051474;28;20218;-67
2022/11/04 09:18:06;;;;;;;1.25;1.15;;;9.30;99.90;;;;;;5051364;28;20264;-67
2022/11/04 09:20:33;;;;;;;2.17;1.00;;;9.20;99.90;;;;;;5051597;28;20218;-67
2022/11/04 09:23:01;;;;;;;1.90;1.30;;;9.10;99.90;;;;;;5051492;28;20228;-67
2022/11/04 09:25:27;;;;;;;1.67;1.20;;;9.10;99.90;;;;;;5043741;28;20700;-67
2022/11/04 09:27:54;;;;;;;1.98;1.20;;;9.20;99.90;;;;;;5047128;28;20197;-68
2022/11/04 09:30:21;;;;;;;1.67;1.33;;;9.30;99.90;;;;;;5047317;28;20221;-68
2022/11/04 09:32:48;;;;;;;1.20;1.10;;;9.40;99.90;;;;;;5046528;28;20201;-66
2022/11/04 09:35:16;;;;;;;5.60;1.50;;;9.40;99.90;;;;;;5051438;28;20236;-68
2022/11/04 09:37:43;;;;;;;1.30;1.20;;;9.50;99.90;;;;;;5047359;28;20583;-68
2022/11/04 09:40:16;;;;;;;2.88;1.25;;;9.50;99.90;;;;;;5046159;28;20579;-67
2022/11/04 09:42:54;;;;;;;2.40;1.20;;;9.60;99.90;;;;;;5050930;28;20198;-67
2022/11/04 09:45:27;;;;;;;1.65;1.10;;;9.60;99.90;;;;;;5050880;28;20232;-67
2022/11/04 09:47:58;;;;;;;1.75;1.20;;;9.70;99.90;;;;;;5050868;28;20209;-67
2022/11/04 09:50:27;;;;;;;1.38;1.00;;;9.70;99.90;;;;;;5050142;28;20226;-67
2022/11/04 09:52:57;;;;;;;1.63;1.48;;;9.70;99.90;;;;;;5051039;28;20207;-67
2022/11/04 09:55:31;;;;;;;2.13;1.40;;;9.70;99.90;;;;;;5050908;28;20232;-67
2022/11/04 09:57:58;;;;;;;1.60;1.20;;;9.80;99.90;;;;;;5051630;28;20201;-66
2022/11/04 10:00:25;;;;;;;1.35;1.25;;;9.90;99.90;;;;;;5050861;28;20259;-67
2022/11/04 10:03:03;;;;;;;1.10;1.00;;;10.10;99.90;;;;;;5050748;28;20668;-67
2022/11/04 10:05:45;;;;;;;1.38;1.20;;;10.20;99.90;;;;;;5051147;28;20221;-67
2022/11/04 10:08:31;;;;;;;3.65;1.17;;;10.30;99.90;;;;;;5050742;28;20906;-67
2022/11/04 10:11:05;;;;;;;1.17;1.08;;;10.40;99.90;;;;;;5051106;28;20720;-67
2022/11/04 10:13:48;;;;;;;1.10;1.00;;;10.40;99.90;;;;;;5050430;28;20697;-68
2022/11/04 10:16:32;;;;;;;1.45;1.02;;;10.60;99.90;;;;;;5050749;28;20225;-67
2022/11/04 10:19:21;;;;;;;2.55;1.10;;;10.90;99.90;;;;;;5050773;28;20658;-67
2022/11/04 10:21:58;;;;;;;1.83;1.30;;;11.10;99.90;;;;;;5050744;28;20212;-67
2022/11/04 10:24:35;;;;;;;2.00;1.30;;;11.20;99.90;;;;;;5047212;28;20217;-67
2022/11/04 10:27:09;;;;;;;4.85;1.45;;;11.30;99.90;;;;;;5051066;28;20680;-66
2022/11/04 10:29:40;;;;;;;1.70;1.25;;;11.10;99.90;;;;;;5050618;28;20729;-67
2022/11/04 10:32:14;;;;;;;2.30;1.17;;;11.10;99.90;;;;;;5050153;28;20208;-67
2022/11/04 10:34:46;;;;;;;2.97;1.73;;;11.30;99.90;;;;;;5050718;28;20248;-67
2022/11/04 10:37:13;;;;;;;0.93;0.80;;;11.50;99.90;;;;;;5049272;28;20570;-67
2022/11/04 10:39:44;;;;;;;1.20;1.00;;;11.50;99.90;;;;;;5050323;28;20563;-67
2022/11/04 10:42:14;;;;;;;1.40;1.00;;;11.40;99.90;;;;;;5049788;28;20213;-67
2022/11/04 10:44:41;;;;;;;1.80;1.00;;;11.40;99.90;;;;;;5050607;28;20633;-66
2022/11/04 10:47:17;;;;;;;1.65;1.10;;;11.30;99.90;;;;;;5045517;28;20202;-67
2022/11/04 10:49:55;;;;;;;1.20;1.10;;;11.50;99.90;;;;;;5050607;28;20217;-67
2022/11/04 10:52:21;;;;;;;1.10;0.90;;;11.50;99.90;;;;;;5049044;28;20202;-67
2022/11/04 10:54:50;;;;;;;1.48;1.08;;;11.40;99.90;;;;;;5046318;28;20225;-67
2022/11/04 10:57:20;;;;;;;2.88;1.17;;;11.40;99.90;;;;;;5049076;28;20209;-67
2022/11/04 10:59:54;;;;;;;1.55;1.15;;;11.60;99.90;;;;;;5049139;28;20281;-69
2022/11/04 11:02:46;;;;;;;2.53;0.97;;;11.60;99.90;;;;;;5049924;28;20206;-67
2022/11/04 11:05:21;;;;;;;2.88;1.20;;;11.60;99.90;;;;;;5050082;28;20480;-67
2022/11/04 11:07:51;;;;;;;1.00;0.90;;;11.60;99.90;;;;;;5049009;28;20201;-66
2022/11/04 11:10:21;;;;;;;1.48;1.00;;;11.40;99.90;;;;;;5049087;28;20218;-67
2022/11/04 11:12:55;;;;;;;2.50;1.13;;;11.40;99.90;;;;;;5049306;28;20622;-66
2022/11/04 11:15:31;;;;;;;2.13;1.00;;;11.30;99.90;;;;;;5049742;28;20234;-67
2022/11/04 11:18:14;;;;;;;1.85;1.30;;;11.30;99.90;;;;;;5049795;28;20212;-67
2022/11/04 11:20:42;;;;;;;2.13;1.08;;;11.30;99.90;;;;;;5048782;28;20202;-66
2022/11/04 11:23:38;;;;;;;1.20;1.00;;;11.40;99.90;;;;;;5049274;28;20209;-66
2022/11/04 11:26:08;;;;;;;4.35;1.30;;;11.40;99.90;;;;;;5049993;28;20237;-66
2022/11/04 11:28:39;;;;;;;1.83;1.58;;;11.40;99.90;;;;;;5049866;28;20566;-67
2022/11/04 11:31:15;;;;;;;1.52;1.10;;;11.30;99.90;;;;;;5048996;28;20316;-66
2022/11/04 11:33:48;;;;;;;2.13;1.35;;;11.30;99.90;;;;;;5049398;28;20292;-65
2022/11/04 11:36:19;;;;;;;3.05;1.10;;;11.40;99.90;;;;;;5049048;28;20244;-68
2022/11/04 11:38:59;;;;;;;1.83;1.10;;;11.40;99.90;;;;;;5049124;28;20202;-66
2022/11/04 11:41:33;;;;;;;1.85;1.40;;;11.40;99.90;;;;;;5047315;28;20212;-66
2022/11/04 11:44:06;;;;;;;2.00;0.90;;;11.50;99.90;;;;;;5048246;28;20197;-65
2022/11/04 11:46:40;;;;;;;1.92;1.35;;;11.60;99.90;;;;;;5047189;28;20232;-68
2022/11/04 11:49:24;;;;;;;1.70;1.20;;;11.70;99.90;;;;;;5048714;28;20204;-68
2022/11/04 11:51:51;;;;;;;1.05;0.90;;;11.90;99.90;;;;;;5049155;28;20205;-68
2022/11/04 11:54:32;;;;;;;2.35;1.05;;;12.20;99.90;;;;;;5052345;28;20213;-68
2022/11/04 11:57:04;;;;;;;3.35;1.02;;;12.40;99.90;;;;;;5052270;28;20202;-67
2022/11/04 11:59:41;;;;;;;2.17;1.08;;;12.70;99.90;;;;;;5052920;28;20209;-68
2022/11/04 12:02:28;;;;;;;2.08;1.38;;;12.90;99.90;;;;;;5051491;28;20683;-66
2022/11/04 12:04:56;;;;;;;3.47;1.20;;;13.10;99.90;;;;;;5052524;28;20221;-68
2022/11/04 12:07:31;;;;;;;1.97;1.10;;;13.10;99.90;;;;;;5052351;28;20881;-68
2022/11/04 12:10:09;;;;;;;3.03;1.47;;;13.00;99.90;;;;;;5043283;28;20499;-67
2022/11/04 12:12:50;;;;;;;1.63;1.02;;;13.10;99.90;;;;;;5047511;28;20495;-68
2022/11/04 12:15:34;;;;;;;1.60;1.30;;;13.10;99.90;;;;;;5047682;28;20221;-67
2022/11/04 12:18:22;;;;;;;4.40;1.02;;;13.10;99.90;;;;;;5051082;28;20530;-67
2022/11/04 12:20:56;;;;;;;0.90;0.80;;;12.80;99.90;;;;;;5044580;28;20560;-67
2022/11/04 12:23:29;;;;;;;2.13;1.37;;;12.60;99.90;;;;;;5048604;28;20539;-67
2022/11/04 12:26:05;;;;;;;1.17;1.08;;;12.50;99.90;;;;;;5051773;28;20480;-68
2022/11/04 12:28:48;;;;;;;3.40;1.40;;;12.40;99.90;;;;;;5051557;28;20205;-68
2022/11/04 12:31:30;;;;;;;2.50;1.20;;;12.30;99.90;;;;;;5051481;28;20489;-67
2022/11/04 12:34:05;;;;;;;1.52;1.23;;;12.20;99.90;;;;;;5051486;28;20205;-67
2022/11/04 12:36:50;;;;;;;1.40;1.10;;;12.20;99.90;;;;;;5052226;28;20277;-68
2022/11/04 12:39:30;;;;;;;2.55;1.20;;;12.20;99.90;;;;;;5050931;28;20579;-69
2022/11/04 12:42:07;;;;;;;4.43;1.30;;;12.20;99.90;;;;;;5051403;28;20297;-69
2022/11/04 12:44:41;;;;;;;2.05;1.20;;;12.20;99.90;;;;;;5051518;28;20480;-68
2022/11/04 12:47:22;;;;;;;1.50;1.20;;;12.10;99.90;;;;;;5050848;28;20574;-68
2022/11/04 12:50:13;;;;;;;1.80;1.05;;;12.10;99.90;;;;;;5052581;28;20198;-68
2022/11/04 12:52:58;;;;;;;1.15;1.00;;;12.10;99.90;;;;;;5051757;28;20206;-68
2022/11/04 12:55:35;;;;;;;4.22;1.52;;;12.10;99.90;;;;;;5052265;28;20221;-68
2022/11/04 12:58:12;;;;;;;2.20;1.00;;;12.20;99.90;;;;;;5052127;28;20206;-68
2022/11/04 13:00:41;;;;;;;1.40;1.05;;;12.10;99.90;;;;;;5052640;28;20212;-68
2022/11/04 13:03:14;;;;;;;1.48;1.10;;;12.00;99.90;;;;;;5051007;28;20202;-68
2022/11/04 13:05:48;;;;;;;1.40;1.15;;;12.00;99.90;;;;;;5052683;28;20236;-67
2022/11/04 13:08:22;;;;;;;1.63;1.35;;;12.10;99.90;;;;;;5052186;28;20587;-69
2022/11/04 13:10:55;;;;;;;1.20;1.00;;;12.20;99.90;;;;;;5051884;28;20225;-69
2022/11/04 13:13:27;;;;;;;2.03;1.10;;;12.30;99.90;;;;;;5051645;28;20464;-68
2022/11/04 13:15:56;;;;;;;1.48;1.38;;;12.40;99.90;;;;;;5052183;28;20226;-67
2022/11/04 13:18:28;;;;;;;5.93;1.75;;;12.50;99.90;;;;;;5052209;28;20599;-68
2022/11/04 13:20:59;;;;;;;2.03;1.00;;;12.60;99.90;;;;;;5052043;28;20198;-68
2022/11/04 13:23:31;;;;;;;1.90;1.17;;;12.60;99.90;;;;;;5051549;28;20452;-68
2022/11/04 13:26:00;;;;;;;3.00;1.53;;;12.40;99.90;;;;;;5041902;28;20573;-72
2022/11/04 13:28:27;;;;;;;1.53;1.03;;;12.50;99.90;;;;;;5051759;28;20541;-68
2022/11/04 13:31:04;;;;;;;3.00;1.10;;;12.50;99.90;;;;;;5051735;28;20483;-68
2022/11/04 13:33:43;;;;;;;2.60;1.00;;;12.50;99.90;;;;;;5051473;28;20471;-68
2022/11/04 13:36:22;;;;;;;2.27;1.47;;;12.40;99.90;;;;;;5051728;28;20487;-68
2022/11/04 13:38:53;;;;;;;2.33;1.25;;;12.40;99.90;;;;;;5051139;28;20460;-68
2022/11/04 13:41:37;;;;;;;1.00;0.90;;;12.30;99.90;;;;;;5051651;28;20193;-68
2022/11/04 13:44:12;;;;;;;1.30;0.80;;;12.00;99.90;;;;;;5051617;28;20592;-67
2022/11/04 13:46:40;;;;;;;1.50;1.40;;;11.60;99.90;;;;;;5051703;28;20201;-69
2022/11/04 13:49:20;;;;;;;1.23;0.95;;;11.20;99.90;;;;;;5051601;28;20609;-68
2022/11/04 13:52:01;;;;;;;2.08;1.38;;;10.90;99.90;;;;;;5050636;28;20221;-68
2022/11/04 13:54:31;;;;;;;2.13;1.30;;;10.60;99.90;;;;;;5046408;28;20605;-68